TAF LDZA 181725Z 1818/1918 05005KT 9999 OVC030
                 TX03/1913Z TN00/1904Z
           TEMPO 1818/1912 4000 -SN BKN008=
TAF LDZA 181125Z 1812/1912 05008KT 9999 BKN030
                 TX04/1812Z TN00/1904Z
    PROB30 TEMPO 1818/1912 4000 -RASN BKN008=
TAF LDZA 180525Z 1806/1906 04006KT 9999 BKN030
                 TX06/1813Z TNM01/1905Z
    PROB40 TEMPO 1809/1814 05012KT
    PROB30 TEMPO 1820/1823 4000 -RASN BKN012
    PROB30 TEMPO 1823/1906 4000 -SN BKN008=
TAF LDZA 172325Z 1800/1900 03006KT 9999 BKN030
                 TX06/1813Z TN01/1806Z
    PROB30 TEMPO 1821/1900 RASN BKN012=
TAF LDZA 171725Z 1718/1818 05008KT 9999 BKN030
                 TX05/1813Z TN01/1806Z=
TAF LDZA 171125Z 1712/1812 05008KT CAVOK
                 TX07/1713Z TN01/1806Z
           TEMPO 1712/1716 05015KT
           TEMPO 1808/1812 05013KT=
TAF AMD LDZA 170801Z 1707/1806 05008KT CAVOK
                     TX08/1712Z TN01/1805Z
               TEMPO 1708/1716 05015KT=